aviador You're here:

KTDR Decoded Metar

in
Report Time2017-09-24 00:56:00
UTC Time2017-09-24 01:28:37
Flight Rules vfr VFR
Wind020° at 04 kt
W.Rank020° ranks 1
Current wind is below 020° avg. (7.6)
Visibility9999 m
Phenomena:N/A
Clouds:N/A
Expected CloudBase > 2,000 ft AGL from Temp-Dew spread
CeilingNone
Temp26°C
Dew Point21°C (74% RH)
QNH1013 hPa
Raw Report
KTDR 240056Z AUTO 02004KT 10SM CLR 26/21 A2992 RMK AO2 SLP135
T02560205 $=

Extra information for KTDR:More info

Social comments